Terminal Aerodrome Forecast
Issued by NWS Pueblo, CO

Home | Current Version | Previous Version | Text Only | Print | Product List | Glossary On
Versions: 1 2 3 4 5 6 7 8 9 10 11 12 13 14 15 16 17 18 19 20 21 22 23 24 25 26 27 28 29 30
000
FTUS45 KPUB 261733
TAFCOS
TAF
KCOS 261733Z 2618/2718 12007KT P6SM SCT080 BKN150
     FM262000 17012KT P6SM VCTS SCT060CB BKN130
      TEMPO 2621/2701 35015G25KT 5SM -TSRA SCT070CB BKN100
     FM270200 02008KT P6SM SCT060 BKN100
     FM271400 07010KT P6SM VCSH BKN030=

USA.gov is the U.S. government's official web portal to all federal, state and local government web resources and services.